RDS148 KSFO-KLAX
Flight info
| Callsign | RDS148 |
|---|---|
| Flight time | N/A |
| Altitude | 37000 |
| Route | WESLA5 SUSEY DCT EBAYE DCT BURGL IRNMN2 |
| Aircraft | A320/M-VGDW/C |
Departure
| Time | 2026-05-05 01:55 |
|---|---|
| Airport | San Francisco International Airport (KSFO) |
Arrival
| Time | N/A |
|---|---|
| Airport | Los Angeles International Airport (KLAX) |
| Time | Latitude | Longitude | Altitude | Speed | Heading |
|---|---|---|---|---|---|
| 2026-05-05 01:21 | 37.61515 | -122.38179 | 16 ft | 0 kts | 257° |
| 2026-05-05 01:44 | 37.61518 | -122.38164 | 17 ft | 4 kts | 241° |
| 2026-05-05 01:44 | 37.61535 | -122.38146 | 17 ft | 4 kts | 180° |
| 2026-05-05 01:45 | 37.61559 | -122.38154 | 15 ft | 4 kts | 144° |
| 2026-05-05 01:45 | 37.61574 | -122.38171 | 17 ft | 0 kts | 118° |
| 2026-05-05 01:46 | 37.61573 | -122.38170 | 17 ft | 1 kts | 118° |
| 2026-05-05 01:47 | 37.61566 | -122.38154 | 16 ft | 2 kts | 117° |
| 2026-05-05 01:47 | 37.61562 | -122.38142 | 16 ft | 0 kts | 117° |
| 2026-05-05 01:48 | 37.61560 | -122.38137 | 16 ft | 3 kts | 117° |
| 2026-05-05 01:49 | 37.61540 | -122.38087 | 14 ft | 8 kts | 112° |
| 2026-05-05 01:49 | 37.61538 | -122.38046 | 14 ft | 1 kts | 141° |
| 2026-05-05 01:49 | 37.61527 | -122.38057 | 14 ft | 5 kts | 212° |
| 2026-05-05 01:49 | 37.61457 | -122.38102 | 16 ft | 16 kts | 201° |
| 2026-05-05 01:50 | 37.61375 | -122.38016 | 16 ft | 19 kts | 121° |
| 2026-05-05 01:50 | 37.61301 | -122.37845 | 16 ft | 24 kts | 115° |
| 2026-05-05 01:50 | 37.61236 | -122.37672 | 18 ft | 20 kts | 111° |
| 2026-05-05 01:50 | 37.61261 | -122.37513 | 20 ft | 20 kts | 52° |
| 2026-05-05 01:51 | 37.61386 | -122.37416 | 23 ft | 24 kts | 26° |
| 2026-05-05 01:51 | 37.61536 | -122.37291 | 23 ft | 28 kts | 56° |
| 2026-05-05 01:51 | 37.61533 | -122.37039 | 22 ft | 32 kts | 118° |
| 2026-05-05 01:51 | 37.61408 | -122.36844 | 20 ft | 32 kts | 131° |
| 2026-05-05 01:52 | 37.61286 | -122.36602 | 18 ft | 33 kts | 120° |
| 2026-05-05 01:52 | 37.61215 | -122.36432 | 16 ft | 22 kts | 116° |
| 2026-05-05 01:52 | 37.61148 | -122.36266 | 18 ft | 22 kts | 116° |
| 2026-05-05 01:52 | 37.61077 | -122.36087 | 19 ft | 23 kts | 117° |
| 2026-05-05 01:53 | 37.61053 | -122.35974 | 19 ft | 0 kts | 76° |
| 2026-05-05 01:53 | 37.61056 | -122.35964 | 19 ft | 4 kts | 69° |
| 2026-05-05 01:53 | 37.61104 | -122.35900 | 18 ft | 16 kts | 29° |
| 2026-05-05 01:54 | 37.61187 | -122.35892 | 20 ft | 6 kts | 290° |
| 2026-05-05 01:54 | 37.61191 | -122.35900 | 19 ft | 0 kts | 299° |
| 2026-05-05 01:54 | 37.61309 | -122.36168 | 16 ft | 77 kts | 298° |
| 2026-05-05 01:54 | 37.61659 | -122.37002 | 22 ft | 134 kts | 298° |
| 2026-05-05 01:55 | 37.62147 | -122.38158 | 360 ft | 154 kts | 298° |
| 2026-05-05 01:55 | 37.62674 | -122.39447 | 777 ft | 178 kts | 297° |
| 2026-05-05 01:55 | 37.63270 | -122.40891 | 1182 ft | 193 kts | 297° |
| 2026-05-05 01:55 | 37.63938 | -122.42476 | 1484 ft | 214 kts | 297° |
| 2026-05-05 01:56 | 37.64662 | -122.44167 | 1792 ft | 221 kts | 297° |
| 2026-05-05 01:56 | 37.65403 | -122.45882 | 2178 ft | 224 kts | 297° |
| 2026-05-05 01:56 | 37.66161 | -122.47608 | 2543 ft | 226 kts | 297° |
| 2026-05-05 01:56 | 37.66767 | -122.49459 | 2955 ft | 239 kts | 276° |
| 2026-05-05 01:57 | 37.66420 | -122.51529 | 3341 ft | 250 kts | 239° |
| 2026-05-05 01:57 | 37.65111 | -122.52944 | 3666 ft | 256 kts | 203° |
| 2026-05-05 01:57 | 37.63343 | -122.53146 | 4091 ft | 261 kts | 173° |
| 2026-05-05 01:57 | 37.61600 | -122.52601 | 4619 ft | 262 kts | 164° |
| 2026-05-05 01:58 | 37.59881 | -122.51813 | 5639 ft | 261 kts | 158° |
| 2026-05-05 01:58 | 37.58326 | -122.50641 | 6719 ft | 263 kts | 137° |
| 2026-05-05 01:58 | 37.57033 | -122.48957 | 7588 ft | 270 kts | 133° |
| 2026-05-05 01:58 | 37.55716 | -122.47237 | 8474 ft | 276 kts | 133° |
| 2026-05-05 01:59 | 37.54354 | -122.45487 | 9311 ft | 284 kts | 133° |
| 2026-05-05 01:59 | 37.52948 | -122.43688 | 10116 ft | 292 kts | 132° |
| 2026-05-05 01:59 | 37.51477 | -122.41807 | 10565 ft | 313 kts | 133° |
| 2026-05-05 01:59 | 37.49895 | -122.39788 | 10940 ft | 332 kts | 133° |
| 2026-05-05 02:00 | 37.48258 | -122.37699 | 11673 ft | 338 kts | 132° |
| 2026-05-05 02:00 | 37.46599 | -122.35588 | 12487 ft | 341 kts | 133° |
| 2026-05-05 02:00 | 37.44919 | -122.33453 | 13295 ft | 345 kts | 132° |
| 2026-05-05 02:00 | 37.43215 | -122.31290 | 14104 ft | 349 kts | 132° |
| 2026-05-05 02:01 | 37.41501 | -122.29115 | 14859 ft | 352 kts | 132° |
| 2026-05-05 02:01 | 37.39770 | -122.26919 | 15601 ft | 354 kts | 132° |
| 2026-05-05 02:01 | 37.38056 | -122.24742 | 16325 ft | 356 kts | 132° |
| 2026-05-05 02:01 | 37.36285 | -122.22491 | 17054 ft | 358 kts | 131° |
| 2026-05-05 02:02 | 37.34531 | -122.20258 | 17781 ft | 361 kts | 131° |
| 2026-05-05 02:02 | 37.32785 | -122.18032 | 18502 ft | 363 kts | 131° |
| 2026-05-05 02:02 | 37.31005 | -122.15765 | 19134 ft | 366 kts | 131° |
| 2026-05-05 02:02 | 37.29204 | -122.13478 | 19712 ft | 371 kts | 131° |
| 2026-05-05 02:03 | 37.27381 | -122.11165 | 20360 ft | 374 kts | 130° |
| 2026-05-05 02:03 | 37.25542 | -122.08835 | 21004 ft | 377 kts | 130° |
| 2026-05-05 02:03 | 37.23684 | -122.06486 | 21655 ft | 379 kts | 130° |
| 2026-05-05 02:03 | 37.21822 | -122.04137 | 22289 ft | 381 kts | 130° |
| 2026-05-05 02:04 | 37.19943 | -122.01767 | 22917 ft | 384 kts | 129° |
| 2026-05-05 02:04 | 37.18051 | -121.99379 | 23542 ft | 387 kts | 129° |
| 2026-05-05 02:04 | 37.16147 | -121.96973 | 24073 ft | 390 kts | 129° |
| 2026-05-05 02:04 | 37.14883 | -121.95375 | 24447 ft | 390 kts | 129° |
| 2026-05-05 02:05 | 37.12964 | -121.92951 | 24985 ft | 392 kts | 129° |
| 2026-05-05 02:05 | 37.11031 | -121.90517 | 25483 ft | 394 kts | 129° |
| 2026-05-05 02:05 | 37.09093 | -121.88080 | 25968 ft | 396 kts | 129° |
| 2026-05-05 02:05 | 37.07140 | -121.85625 | 26443 ft | 399 kts | 129° |
| 2026-05-05 02:06 | 37.05177 | -121.83159 | 26893 ft | 402 kts | 129° |
| 2026-05-05 02:06 | 37.03200 | -121.80676 | 27338 ft | 404 kts | 129° |
| 2026-05-05 02:06 | 37.01210 | -121.78181 | 27822 ft | 405 kts | 129° |
| 2026-05-05 02:06 | 36.99216 | -121.75678 | 28228 ft | 409 kts | 129° |
| 2026-05-05 02:07 | 36.97190 | -121.73139 | 28551 ft | 414 kts | 129° |
| 2026-05-05 02:07 | 36.95145 | -121.70584 | 28940 ft | 417 kts | 129° |
| 2026-05-05 02:07 | 36.93085 | -121.68014 | 29362 ft | 420 kts | 129° |
| 2026-05-05 02:07 | 36.91016 | -121.65430 | 29769 ft | 423 kts | 129° |
| 2026-05-05 02:08 | 36.88925 | -121.62821 | 30138 ft | 426 kts | 129° |
| 2026-05-05 02:08 | 36.86823 | -121.60198 | 30453 ft | 429 kts | 130° |
| 2026-05-05 02:08 | 36.84700 | -121.57551 | 30741 ft | 434 kts | 131° |
| 2026-05-05 02:08 | 36.82555 | -121.54874 | 30944 ft | 439 kts | 131° |
| 2026-05-05 02:09 | 36.80377 | -121.52164 | 31207 ft | 443 kts | 132° |
| 2026-05-05 02:09 | 36.78184 | -121.49443 | 31505 ft | 446 kts | 133° |
| 2026-05-05 02:09 | 36.75978 | -121.46706 | 31797 ft | 449 kts | 133° |
| 2026-05-05 02:09 | 36.73759 | -121.43956 | 32183 ft | 450 kts | 133° |
| 2026-05-05 02:10 | 36.71540 | -121.41207 | 32583 ft | 450 kts | 133° |
| 2026-05-05 02:10 | 36.69316 | -121.38450 | 32997 ft | 451 kts | 133° |
| 2026-05-05 02:10 | 36.67090 | -121.35694 | 33384 ft | 452 kts | 133° |
| 2026-05-05 02:10 | 36.64858 | -121.32933 | 33750 ft | 453 kts | 134° |
| 2026-05-05 02:11 | 36.62613 | -121.30161 | 34127 ft | 454 kts | 134° |
| 2026-05-05 02:11 | 36.60368 | -121.27394 | 34473 ft | 455 kts | 135° |
| 2026-05-05 02:11 | 36.58118 | -121.24624 | 34815 ft | 455 kts | 135° |
| 2026-05-05 02:11 | 36.55897 | -121.21892 | 35164 ft | 454 kts | 136° |
| 2026-05-05 02:12 | 36.53652 | -121.19129 | 35504 ft | 455 kts | 137° |
| 2026-05-05 02:12 | 36.49147 | -121.13577 | 36094 ft | 456 kts | 136° |
| 2026-05-05 02:12 | 36.46895 | -121.10802 | 36412 ft | 457 kts | 137° |
| 2026-05-05 02:13 | 36.44634 | -121.08025 | 36733 ft | 456 kts | 137° |
| 2026-05-05 02:13 | 36.42391 | -121.05230 | 36969 ft | 457 kts | 136° |
| 2026-05-05 02:13 | 36.40229 | -121.02329 | 37021 ft | 456 kts | 133° |
| 2026-05-05 02:14 | 36.36128 | -120.96333 | 37024 ft | 455 kts | 130° |
| 2026-05-05 02:14 | 36.32091 | -120.90297 | 37022 ft | 454 kts | 132° |
| 2026-05-05 02:15 | 36.27994 | -120.84352 | 37021 ft | 453 kts | 133° |
| 2026-05-05 02:15 | 36.23845 | -120.78463 | 37016 ft | 453 kts | 133° |
| 2026-05-05 02:16 | 36.19698 | -120.72579 | 37017 ft | 453 kts | 133° |
| 2026-05-05 02:16 | 36.15555 | -120.66692 | 37021 ft | 454 kts | 133° |
| 2026-05-05 02:17 | 36.11445 | -120.60829 | 37025 ft | 454 kts | 133° |
| 2026-05-05 02:17 | 36.07301 | -120.54915 | 37021 ft | 455 kts | 134° |
| 2026-05-05 02:18 | 36.03143 | -120.49017 | 37023 ft | 455 kts | 134° |
| 2026-05-05 02:18 | 35.98977 | -120.43134 | 37027 ft | 455 kts | 134° |
| 2026-05-05 02:19 | 35.94807 | -120.37248 | 37015 ft | 455 kts | 134° |
| 2026-05-05 02:19 | 35.90639 | -120.31370 | 37021 ft | 455 kts | 135° |
| 2026-05-05 02:20 | 35.86261 | -120.25793 | 37023 ft | 449 kts | 146° |